WetterOnline ( https://www.wetteronline.de )

Wetter aktuell Isny

Aktuelles Wetter: Leutkirch-Herlazhofen (671m)

6-stündlich | Neueste Meldungen
Ortszeit Temperatur Wetter
Fr, 03.02. 19:00 4.4° C bedeckt
Fr, 03.02. 13:00 4.4° C bewölkt
Fr, 03.02. 7:00 2.9° C bedeckt
Fr, 03.02. 1:00 3.1° C bedeckt
Do, 02.02. 19:00 3.1° C leichter Regen
Do, 02.02. 13:00 2.7° C leichter Regen
Do, 02.02. 7:00 1.9° C bewölkt
Do, 02.02. 1:00 2.5° C bedeckt
Ortszeit Temperatur Wetter
Fr, 03.02. 21:30 3.5° C Sprühregen
Fr, 03.02. 21:20 3.5° C Sprühregen
Fr, 03.02. 21:10 3.6° C Sprühregen
Fr, 03.02. 21:00 4.0° C Sprühregen
Fr, 03.02. 20:50 4.0° C Sprühregen
Fr, 03.02. 20:40 4.0° C Sprühregen
Fr, 03.02. 20:30 4.2° C Sprühregen
Fr, 03.02. 20:00 4.4° C Sprühregen
Fr, 03.02. 19:30 4.4° C bewölkt
Fr, 03.02. 19:00 4.4° C bedeckt
Fr, 03.02. 18:30 4.3° C bedeckt
Ortszeit Relative Feuchte Sichtweite
Fr, 03.02. 19:00 74% >70 km
Fr, 03.02. 13:00 71% >70 km
Fr, 03.02. 7:00 77% >70 km
Fr, 03.02. 1:00 81% 55 km
Do, 02.02. 19:00 84% 30 km
Do, 02.02. 13:00 87% 29 km
Do, 02.02. 7:00 87% 35 km
Do, 02.02. 1:00 75% 40 km
Ortszeit Relative Feuchte Sichtweite
Fr, 03.02. 21:30 84% 26 km
Fr, 03.02. 21:20 84% -
Fr, 03.02. 21:10 81% -
Fr, 03.02. 21:00 78% 45 km
Fr, 03.02. 20:50 78% -
Fr, 03.02. 20:40 78% -
Fr, 03.02. 20:30 76% 26 km
Fr, 03.02. 20:00 75% >70 km
Fr, 03.02. 19:30 74% >70 km
Fr, 03.02. 19:00 74% >70 km
Fr, 03.02. 18:30 74% >70 km
Ortszeit Niederschlagsmenge Niederschlagsart
Fr, 03.02. 19:00 0.1 l/m2 in 12 Std. -
Fr, 03.02. 13:00 0.1 l/m2 in 6 Std. Regen
Fr, 03.02. 7:00 0.1 l/m2 in 12 Std. -
Fr, 03.02. 1:00 0.1 l/m2 in 6 Std. Regen
Do, 02.02. 19:00 2 l/m2 in 12 Std. Regen
Do, 02.02. 13:00 0.7 l/m2 in 6 Std. Schnee, Regen
Do, 02.02. 7:00 0.1 l/m2 in 12 Std. Schnee, Regen
Do, 02.02. 1:00 0.0 l/m2 in 6 Std. -
Ortszeit Niederschlagsmenge Niederschlagsart
Fr, 03.02. 21:30 <0.05 l/m2 in 30 Min -
Fr, 03.02. 21:20 keine Meldung -
Fr, 03.02. 21:10 keine Meldung -
Fr, 03.02. 21:00 <0.05 l/m2 in 1 Std. Regen
Fr, 03.02. 20:50 keine Meldung -
Fr, 03.02. 20:40 keine Meldung -
Fr, 03.02. 20:30 <0.05 l/m2 in 30 Min -
Fr, 03.02. 20:00 <0.05 l/m2 in 1 Std. Sprühregen
Fr, 03.02. 19:30 0.0 l/m2 in 30 Min -
Fr, 03.02. 19:00 0.0 l/m2 in 1 Std. -
Fr, 03.02. 18:30 0.0 l/m2 in 30 Min -
Ortszeit Stärke Spitze Richtung
km/h Bft. km/h Grad Sektor
Fr, 03.02. 19:00 33 5 61 230° SW
Fr, 03.02. 13:00 36 5 58 240° SW
Fr, 03.02. 7:00 22 4 48 230° SW
Fr, 03.02. 1:00 22 4 36 230° SW
Do, 02.02. 19:00 25 4 50 230° SW
Do, 02.02. 13:00 30 5 48 230° SW
Do, 02.02. 7:00 26 4 56 240° SW
Do, 02.02. 1:00 33 5 57 240° SW
Ortszeit Stärke Spitze Richtung
km/h Bft. km/h Grad Sektor
Fr, 03.02. 21:30 28 4 48 220° SW
Fr, 03.02. 21:20 28 4 - 220° SW
Fr, 03.02. 21:10 31 5 - 230° SW
Fr, 03.02. 21:00 33 5 52 230° SW
Fr, 03.02. 20:50 33 5 - 230° SW
Fr, 03.02. 20:40 31 5 - 230° SW
Fr, 03.02. 20:30 31 5 52 230° SW
Fr, 03.02. 20:00 33 5 54 230° SW
Fr, 03.02. 19:30 33 5 54 240° SW
Fr, 03.02. 19:00 33 5 56 230° SW
Fr, 03.02. 18:30 33 5 56 230° SW
Ortszeit Untergrenze Bedeckung Gattung
total tief tief mittel hoch
Fr, 03.02. 19:00 870 m 8/8 8/8 - - -
Fr, 03.02. 13:00 750 m 8/8 7/8 - - -
Fr, 03.02. 7:00 750 m 8/8 8/8 - - -
Fr, 03.02. 1:00 510 m 8/8 8/8 - - -
Do, 02.02. 19:00 540 m 7/8 7/8 - - -
Do, 02.02. 13:00 480 m 8/8 8/8 - - -
Do, 02.02. 7:00 360 m 7/8 7/8 - - -
Do, 02.02. 1:00 630 m 8/8 8/8 - - -
Ortszeit Bedeckungsgrad in Achtel und Wolkenuntergrenze
Fr, 03.02. 21:30 2(600m) 6(840m) 8(1050m)
Fr, 03.02. 21:20 2(600m) 6(840m) 8(1050m)
Fr, 03.02. 21:10 8
Fr, 03.02. 21:00 5(810m) 8(1020m)
Fr, 03.02. 20:50 5(810m) 8(1020m)
Fr, 03.02. 20:40 8
Fr, 03.02. 20:30 4(780m) 7(990m) 8(1200m)
Fr, 03.02. 20:00 6(870m) 7(1080m)
Fr, 03.02. 19:30 7(840m)
Fr, 03.02. 19:00 4(870m) 8(1020m) 8(3000m)
Fr, 03.02. 18:30 8(1110m) 8(3300m)
Ortszeit Luftdruck NN (hPa) Tendenz (hPa in 3 Std.)
Fr, 03.02. 19:00 1031 + 0,5
Fr, 03.02. 13:00 1032 - 0,7
Fr, 03.02. 7:00 1033 - 0,2
Fr, 03.02. 1:00 1033 + 0,2
Do, 02.02. 19:00 1032 + 1,8
Do, 02.02. 13:00 1029 + 0,5
Do, 02.02. 7:00 1028 + 0,5
Do, 02.02. 1:00 1028 0,0
Ortszeit Luftdruck NN (hPa) Tendenz (hPa in 3 Std.)
Fr, 03.02. 21:30 1032 + 1,0
Fr, 03.02. 21:20 1032 keine Meldung
Fr, 03.02. 21:10 1032 keine Meldung
Fr, 03.02. 21:00 1032 + 0,3
Fr, 03.02. 20:50 1032 keine Meldung
Fr, 03.02. 20:40 1032 keine Meldung
Fr, 03.02. 20:30 1032 + 0,5
Fr, 03.02. 20:00 1031 + 0,2
Fr, 03.02. 19:30 1031 + 0,5
Fr, 03.02. 19:00 1031 + 0,5
Fr, 03.02. 18:30 1031 + 0,5
Ortszeit Schneehöhe (cm)
Fr, 03.02. 19:00 0
Fr, 03.02. 13:00 0
Fr, 03.02. 7:00 0
Fr, 03.02. 1:00 0
Do, 02.02. 19:00 0
Do, 02.02. 13:00 0
Do, 02.02. 7:00 0
Do, 02.02. 1:00 0
Ortszeit Schneehöhe (cm)
Fr, 03.02. 21:30 0
Fr, 03.02. 21:20 0
Fr, 03.02. 21:10 0
Fr, 03.02. 21:00 0
Fr, 03.02. 20:50 0
Fr, 03.02. 20:40 0
Fr, 03.02. 20:30 0
Fr, 03.02. 20:00 0
Fr, 03.02. 19:30 0
Fr, 03.02. 19:00 0
Fr, 03.02. 18:30 0
Link zu dieser Seite / Seite empfehlen

Das Wetter in ...